Time;durP1;ratioP1;P1;durP2;ratioP2;P2;SDS_P1;SDS_P2;PMS_P1;PMS_P2;Temp;Humidity;BMP_temperature;BMP_pressure;BME280_temperature;BME280_humidity;BME280_pressure;Samples;Min_cycle;Max_cycle;Signal;HPM_P1;HPM_P2
2022/04/16 00:00:56;;;;;;;3.57;3.10;;;15.30;48.20;;;;;;4988777;28;20453;-90
2022/04/16 00:03:23;;;;;;;2.83;2.63;;;15.20;47.90;;;;;;4977586;28;20444;-88
2022/04/16 00:05:51;;;;;;;3.37;3.07;;;15.20;48.40;;;;;;4983469;28;20957;-89
2022/04/16 00:08:21;;;;;;;4.17;3.13;;;15.20;48.80;;;;;;4967960;28;20460;-89
2022/04/16 00:10:49;;;;;;;3.17;2.83;;;15.20;48.80;;;;;;4987400;28;20459;-89
2022/04/16 00:13:17;;;;;;;3.87;3.47;;;15.20;48.80;;;;;;4974324;28;20477;-88
2022/04/16 00:15:43;;;;;;;3.57;2.90;;;15.30;49.00;;;;;;4987793;28;20506;-89
2022/04/16 00:18:11;;;;;;;3.40;3.10;;;15.30;48.60;;;;;;4956711;28;20562;-89
2022/04/16 00:20:39;;;;;;;4.07;3.43;;;15.20;48.70;;;;;;4982854;28;20443;-87
2022/04/16 00:23:07;;;;;;;3.90;3.60;;;15.00;49.40;;;;;;5000076;28;20444;-87
2022/04/16 00:25:35;;;;;;;2.63;2.43;;;15.00;49.60;;;;;;4992706;28;20453;-88
2022/04/16 00:28:03;;;;;;;4.70;3.30;;;15.10;49.30;;;;;;4996836;28;20966;-88
2022/04/16 00:30:35;;;;;;;3.67;2.40;;;15.10;49.10;;;;;;4973056;28;20550;-89
2022/04/16 00:33:06;;;;;;;3.20;2.90;;;15.10;48.80;;;;;;4988436;28;20463;-87
2022/04/16 00:35:38;;;;;;;3.40;2.93;;;15.10;49.40;;;;;;4990563;28;20492;-87
2022/04/16 00:38:31;;;;;;;3.27;2.97;;;15.20;49.20;;;;;;4960559;28;20476;-86
2022/04/16 00:41:02;;;;;;;2.77;2.57;;;15.20;49.00;;;;;;4977499;28;20467;-88
2022/04/16 00:43:30;;;;;;;4.10;3.20;;;15.20;48.80;;;;;;4961918;28;20439;-91
2022/04/16 00:45:59;;;;;;;3.10;2.80;;;15.30;48.80;;;;;;4993468;28;21229;-87
2022/04/16 00:48:27;;;;;;;5.17;3.27;;;15.30;48.30;;;;;;5052539;28;20598;-90
2022/04/16 00:50:56;;;;;;;3.30;3.00;;;15.40;47.50;;;;;;4985246;28;20459;-88
2022/04/16 00:53:27;;;;;;;3.83;2.97;;;15.40;48.20;;;;;;4992118;28;20455;-90
2022/04/16 00:55:54;;;;;;;3.30;3.03;;;15.40;48.10;;;;;;4985502;28;20450;-87
2022/04/16 00:58:25;;;;;;;3.27;2.50;;;15.40;48.20;;;;;;4982048;28;20487;-88
2022/04/16 01:00:54;;;;;;;3.80;3.33;;;15.40;48.20;;;;;;4997856;28;20452;-87
2022/04/16 01:03:21;;;;;;;4.13;3.30;;;15.40;48.20;;;;;;4995392;28;20459;-87
2022/04/16 01:05:51;;;;;;;2.93;2.57;;;15.40;48.10;;;;;;4985678;28;21341;-90
2022/04/16 01:08:19;;;;;;;3.73;3.23;;;15.50;48.10;;;;;;5026904;28;21602;-89
2022/04/16 01:11:11;;;;;;;4.97;3.97;;;15.40;48.40;;;;;;4992690;28;20510;-88
2022/04/16 01:13:47;;;;;;;3.40;2.87;;;15.40;48.80;;;;;;4983226;28;20838;-88
2022/04/16 01:16:16;;;;;;;3.40;2.97;;;15.40;49.10;;;;;;4977653;28;20447;-89
2022/04/16 01:18:48;;;;;;;3.87;3.47;;;15.40;49.20;;;;;;4991393;28;20529;-87
2022/04/16 01:21:17;;;;;;;3.93;2.80;;;15.40;49.20;;;;;;4998183;28;20455;-88
2022/04/16 01:23:46;;;;;;;3.43;3.10;;;15.40;49.30;;;;;;4979399;28;20440;-88
2022/04/16 01:26:16;;;;;;;4.17;3.53;;;15.40;49.50;;;;;;4994598;28;20498;-87
2022/04/16 01:28:45;;;;;;;4.90;2.97;;;15.40;49.40;;;;;;4976570;28;20491;-88
2022/04/16 01:31:12;;;;;;;4.30;3.47;;;15.30;50.30;;;;;;4967494;28;20455;-89
2022/04/16 01:33:44;;;;;;;3.23;2.93;;;15.30;49.40;;;;;;4969778;28;20460;-89
2022/04/16 01:36:37;;;;;;;4.53;3.30;;;15.30;49.50;;;;;;4965155;28;20459;-88
2022/04/16 01:39:07;;;;;;;3.20;2.90;;;15.40;49.50;;;;;;4981957;28;20475;-87
2022/04/16 01:41:36;;;;;;;4.37;2.83;;;15.30;49.00;;;;;;4983766;28;20959;-89
2022/04/16 01:46:57;;;;;;;4.30;3.70;;;15.30;49.40;;;;;;4969063;28;20952;-87
2022/04/16 01:49:26;;;;;;;3.37;3.03;;;15.20;49.50;;;;;;4982723;28;20533;-88
2022/04/16 01:51:57;;;;;;;3.23;2.93;;;15.20;49.50;;;;;;4980078;28;20532;-88
2022/04/16 01:54:25;;;;;;;3.20;2.90;;;15.30;49.70;;;;;;4993862;28;20455;-87
2022/04/16 01:56:56;;;;;;;3.30;3.07;;;15.30;49.40;;;;;;4994163;28;20640;-90
2022/04/16 01:59:25;;;;;;;3.20;2.73;;;15.30;49.40;;;;;;4976954;28;20477;-87
2022/04/16 02:01:56;;;;;;;5.23;3.50;;;15.30;49.10;;;;;;4982029;28;20455;-87
2022/04/16 02:04:24;;;;;;;4.33;3.93;;;15.20;49.00;;;;;;4976158;28;21339;-88
2022/04/16 02:06:54;;;;;;;3.70;3.10;;;15.30;49.20;;;;;;4995844;28;20500;-87
2022/04/16 02:09:21;;;;;;;3.13;2.80;;;15.30;48.90;;;;;;4962339;28;20836;-88
2022/04/16 02:11:51;;;;;;;4.77;3.43;;;15.40;48.80;;;;;;4983380;28;20450;-86
2022/04/16 02:14:21;;;;;;;4.03;3.33;;;15.40;49.10;;;;;;4994430;28;20853;-87
2022/04/16 02:16:50;;;;;;;3.17;2.90;;;15.30;49.00;;;;;;4979431;28;20996;-87
2022/04/16 02:19:18;;;;;;;3.30;3.00;;;15.40;49.30;;;;;;4992438;28;20811;-89
2022/04/16 02:21:47;;;;;;;3.13;2.93;;;15.40;49.20;;;;;;4993728;28;20462;-89
2022/04/16 02:24:14;;;;;;;2.90;2.70;;;15.30;49.00;;;;;;4992356;28;20457;-88
2022/04/16 02:26:42;;;;;;;3.03;2.73;;;15.30;49.10;;;;;;5007530;28;20473;-87
2022/04/16 02:29:12;;;;;;;4.10;3.47;;;15.30;49.20;;;;;;4981862;28;20864;-87
2022/04/16 02:31:40;;;;;;;3.70;3.40;;;15.20;49.30;;;;;;4977854;28;20459;-88
2022/04/16 02:37:00;;;;;;;3.47;3.17;;;15.30;49.00;;;;;;4984796;28;20447;-88
2022/04/16 02:39:28;;;;;;;3.73;3.07;;;15.30;49.30;;;;;;4993256;28;20444;-87
2022/04/16 02:41:54;;;;;;;3.10;2.73;;;15.40;48.90;;;;;;4991723;28;20513;-88
2022/04/16 02:47:28;;;;;;;3.23;2.93;;;15.40;49.00;;;;;;5047279;28;20473;-87
2022/04/16 02:49:56;;;;;;;3.23;2.93;;;15.40;49.20;;;;;;5007346;28;20959;-88
2022/04/16 02:52:25;;;;;;;3.77;3.20;;;15.40;49.40;;;;;;4978423;28;20453;-87
2022/04/16 02:54:52;;;;;;;4.37;3.30;;;15.40;49.50;;;;;;4999068;28;20455;-88
2022/04/16 02:57:19;;;;;;;4.63;3.70;;;15.30;49.00;;;;;;4983499;28;20471;-90
2022/04/16 02:59:48;;;;;;;5.63;3.20;;;15.30;49.30;;;;;;4976904;28;20460;-87
2022/04/16 03:02:19;;;;;;;3.63;3.27;;;15.40;49.30;;;;;;4976568;28;20456;-88
2022/04/16 03:04:50;;;;;;;3.97;3.40;;;15.40;49.30;;;;;;4997367;28;20952;-88
2022/04/16 03:07:19;;;;;;;3.97;3.50;;;15.40;49.30;;;;;;4981091;28;20479;-87
2022/04/16 03:09:48;;;;;;;10.23;3.57;;;15.40;49.30;;;;;;4963031;28;20475;-88
2022/04/16 03:12:15;;;;;;;3.57;3.23;;;15.30;49.20;;;;;;5000256;28;20508;-90
2022/04/16 03:17:35;;;;;;;4.20;3.07;;;15.20;49.30;;;;;;4981987;28;20475;-88
2022/04/16 03:23:21;;;;;;;3.80;2.90;;;15.30;50.00;;;;;;4994666;28;20493;-88
2022/04/16 03:25:48;;;;;;;4.90;3.70;;;15.30;49.70;;;;;;4992678;28;20456;-88
2022/04/16 03:28:16;;;;;;;6.40;2.90;;;15.20;49.50;;;;;;4989612;28;20483;-87
2022/04/16 03:30:46;;;;;;;4.20;3.43;;;15.30;50.00;;;;;;4976000;28;20872;-89
2022/04/16 03:33:14;;;;;;;3.97;3.50;;;15.30;49.50;;;;;;4979559;28;20826;-87
2022/04/16 03:35:42;;;;;;;4.80;3.70;;;15.40;49.30;;;;;;4981788;28;20970;-88
2022/04/16 03:38:35;;;;;;;4.43;3.83;;;15.40;49.20;;;;;;4980955;28;22112;-89
2022/04/16 03:41:06;;;;;;;5.10;4.20;;;15.40;49.30;;;;;;4993938;28;20467;-87
2022/04/16 03:43:34;;;;;;;4.00;3.60;;;15.50;49.20;;;;;;4973014;28;20492;-87
2022/04/16 03:46:02;;;;;;;4.20;3.73;;;15.50;48.90;;;;;;4991413;28;20456;-86
2022/04/16 03:48:59;;;;;;;5.37;3.40;;;15.40;49.60;;;;;;4975664;28;20459;-88
2022/04/16 03:51:27;;;;;;;4.43;4.03;;;15.50;49.80;;;;;;4988869;28;20461;-88
2022/04/16 03:53:55;;;;;;;7.33;5.03;;;15.40;49.00;;;;;;4978099;28;20462;-88
2022/04/16 04:02:33;;;;;;;6.67;4.47;;;14.50;50.00;;;;;;4989004;28;20521;-89
2022/04/16 04:05:04;;;;;;;6.70;4.77;;;14.30;50.10;;;;;;4978551;28;20451;-88
2022/04/16 04:07:31;;;;;;;7.37;5.33;;;14.00;51.00;;;;;;4994028;28;20895;-90
2022/04/16 04:09:58;;;;;;;4.47;4.07;;;13.90;51.50;;;;;;4993462;28;21062;-88
2022/04/16 04:12:26;;;;;;;6.50;4.67;;;14.00;51.60;;;;;;4978335;28;20458;-88
2022/04/16 04:18:24;;;;;;;6.40;4.30;;;14.00;51.10;;;;;;4991706;28;20473;-89
2022/04/16 04:20:54;;;;;;;8.10;4.80;;;14.10;51.10;;;;;;4981354;28;20456;-87
2022/04/16 04:23:22;;;;;;;8.73;4.87;;;14.00;50.80;;;;;;4988111;28;20445;-90
2022/04/16 04:25:49;;;;;;;4.87;4.30;;;14.10;51.00;;;;;;4995667;28;20498;-88
2022/04/16 04:28:16;;;;;;;6.60;4.70;;;14.30;50.60;;;;;;4996500;28;20471;-88
2022/04/16 04:30:43;;;;;;;11.63;5.57;;;14.20;50.80;;;;;;4966419;28;20521;-87
2022/04/16 04:33:10;;;;;;;8.17;4.57;;;14.20;50.50;;;;;;5004114;28;20451;-89
2022/04/16 04:35:37;;;;;;;6.77;5.23;;;14.10;50.90;;;;;;4984997;28;20487;-88
2022/04/16 04:38:06;;;;;;;9.30;7.07;;;14.20;50.50;;;;;;4993375;28;20464;-90
2022/04/16 04:40:33;;;;;;;9.00;6.47;;;14.40;50.60;;;;;;4996272;28;20448;-88
2022/04/16 04:43:00;;;;;;;7.03;5.00;;;14.60;50.00;;;;;;4981486;28;20456;-88
2022/04/16 04:45:26;;;;;;;7.43;6.10;;;14.70;50.00;;;;;;4987156;28;20543;-91
2022/04/16 04:47:53;;;;;;;8.10;4.77;;;14.50;49.80;;;;;;4994267;28;20472;-89
2022/04/16 04:50:20;;;;;;;6.90;5.43;;;14.60;49.70;;;;;;4988088;28;20479;-89
2022/04/16 04:52:47;;;;;;;7.20;5.40;;;14.40;49.70;;;;;;4981343;28;20846;-88
2022/04/16 04:55:16;;;;;;;6.50;5.53;;;14.30;50.30;;;;;;5002020;28;20478;-88
2022/04/16 04:57:43;;;;;;;8.20;5.97;;;14.20;50.40;;;;;;4961879;28;21019;-91
2022/04/16 05:00:12;;;;;;;7.57;5.43;;;14.20;50.20;;;;;;4987690;28;20459;-88
2022/04/16 05:02:41;;;;;;;6.87;4.80;;;14.50;50.00;;;;;;4984652;28;21110;-90
2022/04/16 05:05:08;;;;;;;5.97;5.30;;;14.20;49.80;;;;;;4966157;28;20910;-89
2022/04/16 05:07:35;;;;;;;7.47;6.50;;;14.20;50.30;;;;;;4985717;28;20483;-91
2022/04/16 05:10:02;;;;;;;8.00;5.07;;;14.30;50.50;;;;;;4995914;28;20472;-89
2022/04/16 05:12:31;;;;;;;8.13;6.03;;;14.30;49.60;;;;;;4998833;28;20448;-90
2022/04/16 05:14:58;;;;;;;12.73;6.40;;;13.90;50.30;;;;;;4993621;28;20451;-89
2022/04/16 05:17:25;;;;;;;9.20;5.40;;;13.80;51.20;;;;;;4980330;28;20828;-89
2022/04/16 05:19:52;;;;;;;7.93;4.87;;;14.00;50.40;;;;;;4972730;28;20989;-90
2022/04/16 05:22:19;;;;;;;13.23;6.23;;;13.90;50.50;;;;;;4966440;28;20447;-89
2022/04/16 05:24:46;;;;;;;7.40;5.90;;;14.10;50.60;;;;;;4987208;28;20456;-89
2022/04/16 05:27:13;;;;;;;5.10;4.47;;;14.10;49.90;;;;;;4993842;28;21062;-90
2022/04/16 05:29:56;;;;;;;6.40;4.87;;;14.30;50.00;;;;;;4980799;28;20454;-93
2022/04/16 05:32:25;;;;;;;7.17;5.60;;;14.20;49.50;;;;;;4984514;28;20443;-93
2022/04/16 05:34:55;;;;;;;6.70;5.27;;;14.20;49.70;;;;;;4977963;28;21155;-87
2022/04/16 05:37:22;;;;;;;6.00;4.97;;;14.20;49.50;;;;;;4978212;28;20562;-90
2022/04/16 05:39:49;;;;;;;8.30;5.10;;;14.00;49.70;;;;;;4978608;28;20452;-90
2022/04/16 05:42:16;;;;;;;7.00;5.37;;;13.90;49.70;;;;;;4996779;28;20455;-92
2022/04/16 05:44:44;;;;;;;6.87;5.33;;;13.90;49.50;;;;;;4992303;28;20483;-89
2022/04/16 05:47:12;;;;;;;7.37;4.80;;;13.60;50.00;;;;;;4984810;28;20471;-92
2022/04/16 05:49:38;;;;;;;8.40;6.10;;;13.50;50.30;;;;;;5001372;28;20539;-91
2022/04/16 05:52:06;;;;;;;9.40;5.33;;;13.50;50.10;;;;;;4978236;28;20475;-88
2022/04/16 05:54:34;;;;;;;5.97;5.00;;;13.40;50.20;;;;;;4992332;28;20448;-89
2022/04/16 05:57:02;;;;;;;7.70;5.17;;;13.50;50.40;;;;;;4995400;28;20447;-90
2022/04/16 05:59:29;;;;;;;8.37;5.57;;;13.70;50.00;;;;;;4999290;28;20858;-89
2022/04/16 06:01:57;;;;;;;11.23;7.17;;;13.60;50.20;;;;;;4977098;28;21398;-89
2022/04/16 06:04:24;;;;;;;7.13;6.00;;;13.30;50.40;;;;;;4997074;28;20451;-90
2022/04/16 06:06:51;;;;;;;7.77;5.13;;;13.10;50.60;;;;;;4978018;28;20532;-88
2022/04/16 06:09:19;;;;;;;9.23;5.93;;;12.90;51.30;;;;;;4993595;28;20534;-89
2022/04/16 06:11:48;;;;;;;11.30;5.80;;;12.80;51.50;;;;;;4975280;28;20475;-88
2022/04/16 06:14:15;;;;;;;7.10;5.37;;;12.90;51.40;;;;;;4988535;28;20452;-88
2022/04/16 06:16:42;;;;;;;7.30;4.80;;;13.00;51.30;;;;;;4982209;28;20447;-87
2022/04/16 06:19:10;;;;;;;9.27;5.60;;;12.80;51.40;;;;;;4973814;28;20860;-89
2022/04/16 06:21:37;;;;;;;6.90;5.37;;;12.80;51.90;;;;;;4992462;28;20447;-89
2022/04/16 06:24:04;;;;;;;9.50;5.40;;;13.00;51.60;;;;;;4990559;28;20448;-89
2022/04/16 06:26:31;;;;;;;8.40;5.43;;;13.30;50.80;;;;;;4987273;28;20913;-90
2022/04/16 06:28:58;;;;;;;9.77;6.57;;;13.40;50.40;;;;;;4999145;28;20865;-88
2022/04/16 06:31:25;;;;;;;7.93;5.17;;;13.60;50.40;;;;;;4993243;28;20464;-87
2022/04/16 06:33:52;;;;;;;8.80;5.87;;;13.70;50.30;;;;;;4988833;28;20975;-91
2022/04/16 06:36:20;;;;;;;6.57;5.20;;;13.80;49.60;;;;;;4999675;28;20467;-89
2022/04/16 06:38:47;;;;;;;7.87;5.17;;;13.80;49.00;;;;;;4991979;28;20490;-89
2022/04/16 06:41:14;;;;;;;6.53;5.40;;;13.60;48.70;;;;;;4991027;28;20447;-90
2022/04/16 06:43:41;;;;;;;7.70;5.87;;;13.50;49.60;;;;;;5050317;28;20514;-87
2022/04/16 06:46:08;;;;;;;7.80;5.50;;;13.60;49.80;;;;;;4980567;28;20468;-86
2022/04/16 06:48:35;;;;;;;8.63;6.10;;;13.80;49.40;;;;;;4972068;28;20503;-90
2022/04/16 06:51:02;;;;;;;7.80;5.27;;;14.00;49.20;;;;;;4992896;28;21451;-90
2022/04/16 06:53:31;;;;;;;8.07;5.33;;;14.20;49.00;;;;;;4992694;28;20448;-91
2022/04/16 06:56:00;;;;;;;6.70;4.80;;;14.20;48.50;;;;;;4984034;28;20448;-90
2022/04/16 06:58:28;;;;;;;8.10;5.40;;;14.10;48.70;;;;;;4990014;28;20464;-89
2022/04/16 07:00:55;;;;;;;7.23;4.53;;;14.00;48.70;;;;;;4976515;28;20440;-88
2022/04/16 07:03:22;;;;;;;9.10;5.60;;;13.90;48.90;;;;;;4996714;28;20440;-88
2022/04/16 07:05:49;;;;;;;6.23;4.80;;;13.70;49.20;;;;;;4982274;28;20443;-91
2022/04/16 07:08:17;;;;;;;7.80;4.30;;;13.70;48.80;;;;;;4990868;28;20994;-89
2022/04/16 07:10:46;;;;;;;7.43;6.07;;;13.60;48.90;;;;;;4992266;28;20464;-89
2022/04/16 07:13:13;;;;;;;7.30;5.17;;;13.60;49.10;;;;;;4987862;28;20464;-87
2022/04/16 07:15:40;;;;;;;6.87;4.30;;;13.50;49.70;;;;;;4975542;28;20455;-88
2022/04/16 07:18:07;;;;;;;6.40;4.50;;;13.70;48.90;;;;;;4974910;28;20818;-87
2022/04/16 07:20:34;;;;;;;6.93;4.47;;;13.90;48.60;;;;;;4974034;28;20475;-90
2022/04/16 07:23:01;;;;;;;7.57;3.93;;;14.00;47.90;;;;;;4976788;28;20483;-87
2022/04/16 07:25:28;;;;;;;7.43;4.50;;;13.80;47.40;;;;;;4977459;28;21266;-85
2022/04/16 07:27:57;;;;;;;5.70;4.30;;;13.80;48.10;;;;;;4991070;28;20490;-86
2022/04/16 07:30:24;;;;;;;8.37;4.40;;;13.90;47.40;;;;;;4972579;28;20444;-87
2022/04/16 07:32:51;;;;;;;6.27;4.20;;;14.00;47.90;;;;;;4981500;28;20488;-88
2022/04/16 07:35:18;;;;;;;4.60;3.40;;;14.20;46.70;;;;;;4990047;28;20475;-86
2022/04/16 07:37:46;;;;;;;7.90;3.83;;;14.30;46.70;;;;;;4990189;28;20474;-87
2022/04/16 07:40:13;;;;;;;5.93;4.10;;;14.30;46.80;;;;;;4976077;28;20528;-89
2022/04/16 07:42:40;;;;;;;4.83;4.37;;;14.20;46.30;;;;;;4974951;28;20452;-85
2022/04/16 07:45:10;;;;;;;8.23;4.13;;;14.20;46.20;;;;;;4989158;28;20971;-86
2022/04/16 07:47:37;;;;;;;7.87;4.50;;;13.90;46.50;;;;;;4989030;28;21219;-86
2022/04/16 07:50:04;;;;;;;6.67;4.97;;;14.00;46.60;;;;;;4970795;28;20455;-87
2022/04/16 07:52:31;;;;;;;5.40;4.30;;;14.20;47.10;;;;;;4970536;28;21282;-87
2022/04/16 07:54:58;;;;;;;5.80;4.27;;;14.20;46.30;;;;;;4986685;28;20455;-86
2022/04/16 07:57:25;;;;;;;7.00;5.07;;;13.90;46.80;;;;;;4990443;28;20991;-86
2022/04/16 07:59:53;;;;;;;8.10;4.90;;;13.80;47.30;;;;;;4992349;28;20463;-87
2022/04/16 08:02:22;;;;;;;9.10;5.77;;;13.80;47.30;;;;;;4978747;28;20444;-88
2022/04/16 08:04:49;;;;;;;7.93;4.83;;;13.80;47.50;;;;;;4981140;28;20460;-89
2022/04/16 08:07:16;;;;;;;5.90;5.00;;;14.00;47.00;;;;;;4980889;28;20479;-89
2022/04/16 08:09:43;;;;;;;6.07;4.90;;;14.40;46.40;;;;;;4981449;28;20444;-88
2022/04/16 08:12:10;;;;;;;5.80;4.00;;;14.60;46.00;;;;;;4975259;28;20468;-89
2022/04/16 08:14:37;;;;;;;6.77;4.20;;;14.70;45.60;;;;;;4980604;28;20452;-85
2022/04/16 08:17:04;;;;;;;5.60;3.60;;;14.70;45.50;;;;;;4988843;28;20447;-88
2022/04/16 08:19:32;;;;;;;8.17;4.00;;;14.60;45.50;;;;;;4967335;28;20467;-87
2022/04/16 08:21:59;;;;;;;4.70;3.70;;;14.70;44.70;;;;;;4977222;28;20481;-87
2022/04/16 08:24:41;;;;;;;7.70;3.90;;;14.80;44.60;;;;;;4979590;28;21018;-90
2022/04/16 08:27:08;;;;;;;3.13;2.77;;;15.00;45.10;;;;;;4978263;28;20448;-88
2022/04/16 08:29:35;;;;;;;5.67;3.60;;;14.90;43.90;;;;;;4987103;28;20818;-88
2022/04/16 08:32:02;;;;;;;4.70;3.23;;;15.10;44.20;;;;;;4987116;28;20551;-89
2022/04/16 08:34:29;;;;;;;6.77;3.70;;;14.80;43.30;;;;;;4978322;28;20494;-89
2022/04/16 08:36:58;;;;;;;7.00;4.07;;;14.60;45.00;;;;;;4992050;28;20455;-87
2022/04/16 08:39:25;;;;;;;4.40;3.30;;;14.70;44.00;;;;;;4988955;28;20465;-89
2022/04/16 08:41:53;;;;;;;5.60;4.30;;;14.70;44.00;;;;;;4979438;28;20448;-88
2022/04/16 08:44:20;;;;;;;3.77;3.10;;;15.00;43.50;;;;;;4992103;28;20448;-86
2022/04/16 08:46:47;;;;;;;4.27;3.30;;;14.90;42.60;;;;;;4959790;28;20463;-89
2022/04/16 08:49:15;;;;;;;4.67;3.33;;;15.00;43.40;;;;;;4966809;28;20480;-88
2022/04/16 08:51:44;;;;;;;4.40;2.73;;;15.00;42.60;;;;;;4982692;28;21034;-85
2022/04/16 08:54:13;;;;;;;3.10;2.80;;;14.90;41.80;;;;;;4976929;28;20453;-92
2022/04/16 08:56:40;;;;;;;4.40;3.30;;;14.90;43.50;;;;;;4994579;28;20879;-89
2022/04/16 08:59:07;;;;;;;6.07;3.30;;;14.90;43.00;;;;;;4992033;28;20481;-87
2022/04/16 09:01:34;;;;;;;3.83;2.70;;;14.90;42.20;;;;;;4993577;28;21085;-91
2022/04/16 09:04:01;;;;;;;5.20;2.90;;;14.90;42.10;;;;;;4986203;28;20466;-89
2022/04/16 09:06:28;;;;;;;4.43;3.00;;;15.00;41.50;;;;;;4988327;28;20959;-87
2022/04/16 09:08:55;;;;;;;5.47;2.97;;;14.80;41.30;;;;;;4988392;28;20463;-87
2022/04/16 09:11:24;;;;;;;3.07;2.73;;;14.70;41.80;;;;;;4975890;28;20721;-88
2022/04/16 09:13:55;;;;;;;5.10;3.03;;;15.00;41.20;;;;;;4990805;28;20448;-88
2022/04/16 09:16:23;;;;;;;3.00;2.40;;;15.40;40.10;;;;;;4978292;28;20873;-89
2022/04/16 09:18:52;;;;;;;2.63;2.40;;;15.60;38.30;;;;;;4991154;28;20902;-88
2022/04/16 09:21:19;;;;;;;3.40;2.70;;;15.70;38.90;;;;;;4995019;28;20459;-90
2022/04/16 09:23:48;;;;;;;3.50;2.63;;;15.70;38.70;;;;;;4982147;28;20461;-89
2022/04/16 09:26:31;;;;;;;3.30;2.73;;;16.00;38.20;;;;;;4974154;28;21002;-89
2022/04/16 09:29:05;;;;;;;6.30;3.30;;;16.30;38.30;;;;;;4981616;28;20991;-87
2022/04/16 09:31:34;;;;;;;4.87;3.00;;;16.80;38.00;;;;;;4972132;28;20471;-89
2022/04/16 09:34:01;;;;;;;6.27;3.60;;;16.60;36.60;;;;;;4986212;28;20452;-90
2022/04/16 09:36:29;;;;;;;5.53;2.87;;;16.60;36.30;;;;;;4983892;28;20456;-87
2022/04/16 09:39:03;;;;;;;3.67;2.97;;;16.40;35.30;;;;;;4969676;28;20479;-89
2022/04/16 09:41:36;;;;;;;2.80;2.27;;;16.50;36.40;;;;;;4995794;28;21053;-88
2022/04/16 09:46:57;;;;;;;3.43;3.13;;;16.80;35.50;;;;;;4986447;28;20475;-88
2022/04/16 09:49:25;;;;;;;4.20;3.00;;;16.90;35.00;;;;;;4984576;28;20444;-87
2022/04/16 09:51:53;;;;;;;3.77;2.50;;;17.00;35.60;;;;;;4989189;28;20991;-90
2022/04/16 09:54:21;;;;;;;2.60;2.40;;;17.30;36.10;;;;;;4980137;28;20978;-88
2022/04/16 09:56:54;;;;;;;4.43;3.23;;;17.60;34.40;;;;;;4988818;28;20495;-89
2022/04/16 09:59:27;;;;;;;3.20;2.70;;;17.60;34.50;;;;;;4974266;28;20474;-88
2022/04/16 10:01:54;;;;;;;2.70;2.30;;;17.70;33.90;;;;;;4989837;28;20449;-89
2022/04/16 10:04:22;;;;;;;4.40;3.50;;;17.70;33.70;;;;;;4987635;28;20452;-87
2022/04/16 10:06:51;;;;;;;2.57;2.37;;;17.80;32.30;;;;;;4975198;28;20471;-88
2022/04/16 10:09:22;;;;;;;2.90;2.53;;;18.10;32.60;;;;;;4990488;28;22281;-88
2022/04/16 10:14:45;;;;;;;2.50;2.30;;;17.60;33.30;;;;;;4973915;28;20525;-90
2022/04/16 10:17:25;;;;;;;4.03;2.83;;;18.10;34.00;;;;;;4980479;28;20452;-89
2022/04/16 10:19:54;;;;;;;4.67;3.47;;;18.10;31.90;;;;;;4969964;28;20581;-89
2022/04/16 10:22:25;;;;;;;3.80;2.80;;;18.00;31.80;;;;;;4978289;28;20480;-88
2022/04/16 10:24:53;;;;;;;4.37;3.63;;;18.00;31.70;;;;;;4988481;28;20464;-88
2022/04/16 10:27:26;;;;;;;3.80;3.40;;;17.90;31.70;;;;;;4971374;28;20638;-89
2022/04/16 10:29:54;;;;;;;3.90;2.80;;;17.80;31.50;;;;;;4985266;28;20448;-89
2022/04/16 10:32:21;;;;;;;2.93;2.73;;;17.80;31.50;;;;;;4971165;28;20600;-89
2022/04/16 10:34:48;;;;;;;2.33;2.13;;;17.90;30.90;;;;;;4959938;28;20453;-89
2022/04/16 10:37:22;;;;;;;3.93;2.70;;;17.90;31.00;;;;;;4959591;28;20573;-88
2022/04/16 10:39:55;;;;;;;4.97;2.57;;;18.20;31.10;;;;;;4985958;28;21127;-91
2022/04/16 10:42:33;;;;;;;4.30;2.63;;;18.50;29.80;;;;;;4983233;28;20517;-88
2022/04/16 10:45:09;;;;;;;4.10;2.37;;;18.70;29.40;;;;;;4986681;28;20456;-89
2022/04/16 10:47:38;;;;;;;5.07;2.73;;;18.50;29.60;;;;;;4996779;28;20476;-89
2022/04/16 10:50:12;;;;;;;3.50;2.50;;;18.40;28.70;;;;;;4964247;28;20444;-89
2022/04/16 10:52:39;;;;;;;2.20;2.00;;;18.30;29.30;;;;;;4963103;28;20466;-88
2022/04/16 10:55:08;;;;;;;2.60;2.40;;;18.30;28.20;;;;;;4988011;28;20456;-89
2022/04/16 10:57:36;;;;;;;7.47;2.37;;;18.70;28.60;;;;;;4975686;28;20531;-88
2022/04/16 11:00:14;;;;;;;5.43;2.13;;;19.00;27.40;;;;;;4973148;28;20444;-88
2022/04/16 11:02:41;;;;;;;3.13;2.40;;;19.10;26.80;;;;;;4988786;28;20614;-90
2022/04/16 11:05:10;;;;;;;2.60;2.30;;;19.30;27.80;;;;;;4966085;28;20448;-90
2022/04/16 11:07:39;;;;;;;2.83;2.13;;;19.30;27.50;;;;;;4987925;28;20567;-89
2022/04/16 11:10:11;;;;;;;2.57;2.37;;;18.80;25.80;;;;;;4989092;28;20469;-90
2022/04/16 11:12:40;;;;;;;2.13;1.80;;;18.50;26.30;;;;;;4993030;28;20471;-90
2022/04/16 11:15:09;;;;;;;2.50;2.10;;;18.90;26.90;;;;;;4997658;28;20453;-89
2022/04/16 11:17:36;;;;;;;3.30;2.10;;;19.40;27.40;;;;;;4992016;28;20471;-90
2022/04/16 11:20:05;;;;;;;4.80;2.30;;;19.30;25.50;;;;;;4991870;28;20444;-90
2022/04/16 11:22:33;;;;;;;2.13;1.93;;;19.20;25.80;;;;;;4978207;28;21019;-90
2022/04/16 11:25:06;;;;;;;1.70;1.60;;;19.10;26.20;;;;;;4991957;28;20509;-90
2022/04/16 11:35:57;;;;;;;2.40;1.63;;;19.50;24.80;;;;;;4990622;28;20862;-89
2022/04/16 11:38:29;;;;;;;4.40;2.30;;;19.30;25.10;;;;;;4995344;28;20468;-90
2022/04/16 11:40:56;;;;;;;1.70;1.60;;;19.30;24.80;;;;;;4979577;28;20892;-89
2022/04/16 11:43:24;;;;;;;1.77;1.53;;;19.10;25.00;;;;;;4974786;28;20520;-92
2022/04/16 11:45:55;;;;;;;1.87;1.77;;;19.30;25.00;;;;;;4976582;28;20457;-88
2022/04/16 11:48:22;;;;;;;3.27;2.03;;;19.30;24.50;;;;;;4979564;28;20515;-88
2022/04/16 11:50:50;;;;;;;2.40;2.20;;;19.60;24.20;;;;;;4984351;28;20452;-90
2022/04/16 11:53:17;;;;;;;2.13;1.93;;;19.90;24.80;;;;;;4989598;28;20596;-88
2022/04/16 11:55:48;;;;;;;2.40;2.20;;;20.20;23.60;;;;;;4986851;28;21520;-90
2022/04/16 11:58:15;;;;;;;4.73;1.80;;;20.50;23.70;;;;;;4988086;28;20514;-88
2022/04/16 12:00:49;;;;;;;3.87;1.97;;;20.10;23.50;;;;;;4986779;28;20471;-88
2022/04/16 12:03:17;;;;;;;2.03;1.93;;;19.50;23.50;;;;;;4967759;28;21243;-87
2022/04/16 12:05:47;;;;;;;3.10;2.20;;;19.50;23.60;;;;;;4966776;28;21442;-88
2022/04/16 12:08:14;;;;;;;3.20;1.97;;;19.80;23.40;;;;;;4984375;28;20503;-87
2022/04/16 12:10:45;;;;;;;2.10;1.57;;;20.00;23.70;;;;;;4982044;28;20544;-87
2022/04/16 12:13:13;;;;;;;3.10;1.80;;;19.90;23.30;;;;;;4988254;28;20480;-89
2022/04/16 12:15:42;;;;;;;1.87;1.77;;;20.30;23.20;;;;;;4982742;28;20459;-89
2022/04/16 12:18:10;;;;;;;5.33;1.87;;;20.60;21.70;;;;;;4987076;28;20506;-90
2022/04/16 12:20:42;;;;;;;1.80;1.67;;;20.70;21.60;;;;;;4977157;28;21131;-89
2022/04/16 12:23:13;;;;;;;2.00;1.90;;;20.40;22.40;;;;;;4989491;28;21854;-89
2022/04/16 12:25:41;;;;;;;2.57;1.87;;;20.50;21.50;;;;;;4994733;28;20517;-90
2022/04/16 12:28:11;;;;;;;4.50;2.40;;;20.40;21.30;;;;;;4969672;28;20464;-88
2022/04/16 12:30:38;;;;;;;2.23;1.80;;;20.20;21.40;;;;;;4985861;28;20510;-90
2022/04/16 12:33:07;;;;;;;2.20;1.80;;;20.20;21.30;;;;;;4964596;28;20472;-90
2022/04/16 12:35:35;;;;;;;1.90;1.80;;;19.80;20.10;;;;;;4991245;28;20456;-90
2022/04/16 12:38:04;;;;;;;2.60;2.03;;;19.90;21.20;;;;;;4988476;28;20547;-90
2022/04/16 12:40:33;;;;;;;2.33;2.13;;;19.80;20.70;;;;;;4969453;28;20479;-89
2022/04/16 12:43:01;;;;;;;2.20;1.87;;;20.00;21.20;;;;;;5006452;28;20439;-88
2022/04/16 12:45:30;;;;;;;2.37;2.20;;;20.00;19.80;;;;;;5001271;28;20534;-89
2022/04/16 12:47:57;;;;;;;2.63;2.07;;;20.30;21.30;;;;;;4979994;28;20490;-87
2022/04/16 12:50:26;;;;;;;2.60;2.00;;;20.40;19.60;;;;;;4999431;28;20468;-87
2022/04/16 12:52:53;;;;;;;2.63;2.20;;;20.90;19.80;;;;;;4974222;28;20468;-89
2022/04/16 12:55:22;;;;;;;2.23;2.13;;;20.90;19.40;;;;;;4994725;28;20452;-89
2022/04/16 12:57:49;;;;;;;4.50;2.90;;;20.60;20.20;;;;;;4999460;28;20465;-88
2022/04/16 13:00:17;;;;;;;1.77;1.67;;;20.60;20.20;;;;;;4987880;28;20459;-89
2022/04/16 13:02:46;;;;;;;2.63;2.43;;;20.50;19.40;;;;;;4973068;28;20916;-88
2022/04/16 13:05:14;;;;;;;2.43;2.20;;;20.70;20.40;;;;;;4992651;28;20865;-88
2022/04/16 13:07:42;;;;;;;1.67;1.57;;;20.90;19.50;;;;;;4990802;28;20486;-87
2022/04/16 13:10:10;;;;;;;2.20;2.00;;;21.10;19.60;;;;;;4987093;28;20545;-89
2022/04/16 13:12:39;;;;;;;6.80;2.30;;;21.40;19.40;;;;;;4974749;28;20783;-88
2022/04/16 13:15:07;;;;;;;2.03;1.93;;;21.60;19.70;;;;;;4990475;28;20972;-89
2022/04/16 13:17:34;;;;;;;4.30;2.13;;;21.90;19.00;;;;;;4991932;28;20460;-88
2022/04/16 13:20:02;;;;;;;2.53;2.33;;;22.00;19.10;;;;;;4988528;28;20443;-88
2022/04/16 13:22:29;;;;;;;2.67;2.30;;;22.30;19.30;;;;;;4978859;28;20572;-87
2022/04/16 13:24:56;;;;;;;3.27;2.33;;;22.00;19.30;;;;;;4991385;28;20456;-88
2022/04/16 13:27:23;;;;;;;2.00;1.80;;;22.30;19.10;;;;;;4990455;28;20590;-89
2022/04/16 13:29:51;;;;;;;1.90;1.80;;;22.10;18.30;;;;;;4990548;28;20459;-88
2022/04/16 13:32:19;;;;;;;2.40;2.20;;;22.00;18.00;;;;;;4990495;28;20980;-87